createdAt,value
2023-05-01T00:02:26.880Z,5.35
2023-05-01T00:04:53.860Z,5.33
2023-05-01T00:07:20.983Z,5.31
2023-05-01T00:09:48.023Z,5.30
2023-05-01T00:12:14.720Z,5.26
2023-05-01T00:14:41.983Z,5.15
2023-05-01T00:17:08.649Z,5.10
2023-05-01T00:19:35.339Z,5.09
2023-05-01T00:22:02.415Z,5.02
2023-05-01T00:24:29.442Z,4.99
2023-05-01T00:26:56.830Z,4.95
2023-05-01T00:29:23.564Z,4.96
2023-05-01T00:31:50.357Z,4.96
2023-05-01T00:34:17.156Z,4.92
2023-05-01T00:36:43.850Z,4.81
2023-05-01T00:39:10.590Z,4.76
2023-05-01T00:41:37.413Z,4.74
2023-05-01T00:44:04.548Z,4.77
2023-05-01T00:46:32.341Z,4.78
2023-05-01T00:48:59.516Z,4.78
2023-05-01T00:51:29.475Z,4.79
2023-05-01T00:53:56.562Z,4.73
2023-05-01T00:56:23.367Z,4.68
2023-05-01T00:58:55.388Z,4.62
2023-05-01T01:01:22.484Z,4.60
2023-05-01T01:03:51.793Z,4.56
2023-05-01T01:06:31.667Z,4.47
2023-05-01T01:09:08.236Z,4.43
2023-05-01T01:12:08.080Z,4.37
2023-05-01T01:14:50.897Z,4.36
2023-05-01T01:17:28.382Z,4.37
2023-05-01T01:20:23.063Z,4.40
2023-05-01T01:23:22.029Z,4.35
2023-05-01T01:25:57.060Z,4.31
2023-05-01T01:29:17.215Z,4.29
2023-05-01T01:31:58.291Z,4.28
2023-05-01T01:34:33.813Z,4.25
2023-05-01T01:37:04.989Z,4.23
2023-05-01T01:39:53.140Z,4.20
2023-05-01T01:42:29.191Z,4.22
2023-05-01T01:44:58.939Z,4.21
2023-05-01T01:47:31.858Z,4.18
2023-05-01T01:50:04.384Z,4.16
2023-05-01T01:52:33.248Z,4.14
2023-05-01T01:55:09.726Z,4.04
2023-05-01T01:57:39.763Z,3.92
2023-05-01T02:00:09.026Z,3.83
2023-05-01T02:02:39.654Z,3.84
2023-05-01T02:05:09.072Z,3.87
2023-05-01T02:07:39.241Z,3.94
2023-05-01T02:10:08.635Z,3.96
2023-05-01T02:12:37.962Z,3.94
2023-05-01T02:15:08.076Z,3.93
2023-05-01T02:17:37.574Z,3.94
2023-05-01T02:20:06.512Z,3.88
2023-05-01T02:22:33.787Z,3.91
2023-05-01T02:25:01.977Z,3.95
2023-05-01T02:27:36.030Z,3.97
2023-05-01T02:30:02.909Z,3.93
2023-05-01T02:32:31.977Z,3.83
2023-05-01T02:35:00.013Z,3.69
2023-05-01T02:37:28.183Z,3.59
2023-05-01T02:39:55.219Z,3.49
2023-05-01T02:42:25.271Z,3.42
2023-05-01T02:44:58.450Z,3.36
2023-05-01T02:47:29.458Z,3.25
2023-05-01T02:49:57.808Z,3.16
2023-05-01T02:52:24.760Z,3.09
2023-05-01T02:54:51.929Z,3.05
2023-05-01T02:57:20.355Z,3.00
2023-05-01T02:59:47.111Z,3.03
2023-05-01T03:02:13.866Z,3.03
2023-05-01T03:04:41.023Z,3.00
2023-05-01T03:07:08.493Z,2.96
2023-05-01T03:09:35.237Z,2.86
2023-05-01T03:12:02.890Z,2.81
2023-05-01T03:14:29.591Z,2.76
2023-05-01T03:16:56.783Z,2.66
2023-05-01T03:19:23.435Z,2.63
2023-05-01T03:21:50.227Z,2.62
2023-05-01T03:24:17.118Z,2.62
2023-05-01T03:26:44.151Z,2.63
2023-05-01T03:29:13.590Z,2.64
2023-05-01T03:31:40.318Z,2.62
2023-05-01T03:34:07.389Z,2.62
2023-05-01T03:36:34.088Z,2.60
2023-05-01T03:39:01.111Z,2.55
2023-05-01T03:41:27.829Z,2.51
2023-05-01T03:43:54.539Z,2.50
2023-05-01T03:46:21.957Z,2.52
2023-05-01T03:48:49.043Z,2.51
2023-05-01T03:51:17.267Z,2.51
2023-05-01T03:53:43.994Z,2.51
2023-05-01T03:56:10.708Z,2.54
2023-05-01T03:58:37.461Z,2.58
2023-05-01T04:01:04.199Z,2.62
2023-05-01T04:03:30.977Z,2.63
2023-05-01T04:05:58.104Z,2.63
2023-05-01T04:08:25.282Z,2.64
2023-05-01T04:10:51.979Z,2.62
2023-05-01T04:13:18.678Z,2.63
2023-05-01T04:15:49.084Z,2.65
2023-05-01T04:18:16.123Z,2.69
2023-05-01T04:20:42.820Z,2.68
2023-05-01T04:23:09.734Z,2.72
2023-05-01T04:25:37.329Z,2.74
2023-05-01T04:28:05.300Z,2.79
2023-05-01T04:30:32.678Z,2.87
2023-05-01T04:32:59.496Z,3.04
2023-05-01T04:35:26.207Z,3.27
2023-05-01T04:37:53.159Z,3.42
2023-05-01T04:40:19.861Z,3.50
2023-05-01T04:42:46.653Z,3.56
2023-05-01T04:45:13.457Z,3.65
2023-05-01T04:47:40.211Z,3.69
2023-05-01T04:50:08.371Z,3.75
2023-05-01T04:52:36.020Z,3.81
2023-05-01T04:55:03.867Z,3.91
2023-05-01T04:57:30.586Z,4.01
2023-05-01T04:59:57.803Z,4.11
2023-05-01T05:02:24.974Z,4.17
2023-05-01T05:04:54.040Z,4.26
2023-05-01T05:07:21.247Z,4.36
2023-05-01T05:09:48.019Z,4.40
2023-05-01T05:12:17.541Z,4.47
2023-05-01T05:14:44.268Z,4.53
2023-05-01T05:17:11.112Z,4.58
2023-05-01T05:19:39.312Z,4.63
2023-05-01T05:22:06.060Z,4.71
2023-05-01T05:24:32.810Z,4.78
2023-05-01T05:26:59.498Z,4.89
2023-05-01T05:29:26.193Z,5.00
2023-05-01T05:31:52.961Z,5.14
2023-05-01T05:34:19.748Z,5.21
2023-05-01T05:36:47.265Z,5.34
2023-05-01T05:39:14.030Z,5.48
2023-05-01T05:41:40.721Z,5.62
2023-05-01T05:44:07.555Z,5.74
2023-05-01T05:46:34.455Z,5.90
2023-05-01T05:49:01.264Z,6.07
2023-05-01T05:51:28.222Z,6.22
2023-05-01T05:53:54.887Z,6.38
2023-05-01T05:56:21.580Z,6.48
2023-05-01T05:58:48.382Z,6.58
2023-05-01T06:01:15.190Z,6.63
2023-05-01T06:03:42.223Z,6.70
2023-05-01T06:06:09.341Z,6.78
2023-05-01T06:08:37.814Z,6.86
2023-05-01T06:11:04.696Z,6.93
2023-05-01T06:13:33.002Z,7.08
2023-05-01T06:15:59.807Z,7.93
2023-05-01T06:18:27.234Z,9.79
2023-05-01T06:20:54.564Z,12.04
2023-05-01T06:23:21.352Z,13.94
2023-05-01T06:25:49.182Z,15.64
2023-05-01T06:28:16.139Z,17.45
2023-05-01T06:30:43.266Z,19.29
2023-05-01T06:33:10.633Z,20.70
2023-05-01T06:35:39.607Z,22.06
2023-05-01T06:38:06.403Z,23.57
2023-05-01T06:40:34.962Z,24.83
2023-05-01T06:43:03.501Z,25.50
2023-05-01T06:45:31.352Z,25.84
2023-05-01T06:47:58.077Z,26.18
2023-05-01T06:50:24.896Z,26.71
2023-05-01T06:52:51.615Z,27.70
2023-05-01T06:55:18.427Z,28.41
2023-05-01T06:57:45.111Z,28.19
2023-05-01T07:00:12.508Z,28.52
2023-05-01T07:02:41.202Z,28.87
2023-05-01T07:05:07.962Z,29.44
2023-05-01T07:07:34.870Z,30.23
2023-05-01T07:10:01.848Z,30.28
2023-05-01T07:12:29.857Z,30.33
2023-05-01T07:14:59.958Z,30.10
2023-05-01T07:17:29.505Z,30.10
2023-05-01T07:19:56.449Z,30.29
2023-05-01T07:22:23.390Z,30.07
2023-05-01T07:24:50.436Z,30.16
2023-05-01T07:27:19.930Z,30.78
2023-05-01T07:29:46.808Z,31.44
2023-05-01T07:32:14.861Z,32.57
2023-05-01T07:34:42.491Z,33.46
2023-05-01T07:37:09.253Z,33.68
2023-05-01T07:39:36.213Z,33.93
2023-05-01T07:42:04.088Z,33.74
2023-05-01T07:44:32.249Z,33.63
2023-05-01T07:47:06.360Z,33.91
2023-05-01T07:49:38.224Z,33.75
2023-05-01T07:52:08.819Z,33.09
2023-05-01T07:54:35.545Z,33.03
2023-05-01T07:57:02.898Z,33.43
2023-05-01T07:59:31.633Z,33.10
2023-05-01T08:01:58.677Z,32.78
2023-05-01T08:04:25.488Z,33.21
2023-05-01T08:06:52.495Z,32.99
2023-05-01T08:09:19.230Z,33.87
2023-05-01T08:11:46.079Z,34.55
2023-05-01T08:14:12.727Z,34.54
2023-05-01T08:16:39.530Z,34.14
2023-05-01T08:19:07.480Z,34.19
2023-05-01T08:21:35.485Z,34.00
2023-05-01T08:24:02.239Z,34.06
2023-05-01T08:26:29.063Z,34.59
2023-05-01T08:28:55.720Z,34.89
2023-05-01T08:31:25.236Z,35.26
2023-05-01T08:33:52.052Z,35.64
2023-05-01T08:36:20.657Z,35.76
2023-05-01T08:38:47.990Z,35.94
2023-05-01T08:41:22.493Z,35.66
2023-05-01T08:43:55.122Z,35.10
2023-05-01T08:46:48.141Z,34.90
2023-05-01T08:49:17.543Z,34.47
2023-05-01T08:51:50.730Z,33.53
2023-05-01T08:54:19.814Z,32.31
2023-05-01T08:56:53.608Z,30.20
2023-05-01T08:59:21.828Z,27.26
2023-05-01T09:01:49.017Z,24.91
2023-05-01T09:04:16.447Z,23.69
2023-05-01T09:06:45.230Z,22.97
2023-05-01T09:09:12.098Z,21.84
2023-05-01T09:11:39.810Z,20.77
2023-05-01T09:14:08.556Z,20.17
2023-05-01T09:16:35.726Z,19.83
2023-05-01T09:19:02.611Z,19.32
2023-05-01T09:21:31.782Z,18.96
2023-05-01T09:23:58.477Z,18.58
2023-05-01T09:26:25.574Z,17.72
2023-05-01T09:28:57.464Z,17.01
2023-05-01T09:31:29.173Z,16.42
2023-05-01T09:33:58.262Z,15.85
2023-05-01T09:36:28.130Z,15.67
2023-05-01T09:38:55.019Z,15.66
2023-05-01T09:41:22.411Z,15.49
2023-05-01T09:43:58.242Z,15.23
2023-05-01T09:46:26.364Z,15.10
2023-05-01T09:49:03.259Z,15.04
2023-05-01T09:51:32.009Z,14.99
2023-05-01T09:54:20.884Z,14.67
2023-05-01T09:56:49.298Z,14.21
2023-05-01T09:59:19.782Z,13.83
2023-05-01T10:01:49.445Z,13.77
2023-05-01T10:04:16.367Z,13.61
2023-05-01T10:06:43.167Z,13.41
2023-05-01T10:09:17.043Z,13.50
2023-05-01T10:11:49.613Z,13.59
2023-05-01T10:14:16.773Z,13.71
2023-05-01T10:16:46.487Z,13.77
2023-05-01T10:19:13.968Z,13.83
2023-05-01T10:21:41.823Z,13.80
2023-05-01T10:24:10.164Z,13.77
2023-05-01T10:26:37.812Z,13.71
2023-05-01T10:29:04.826Z,13.58
2023-05-01T10:31:33.589Z,13.44
2023-05-01T10:34:02.082Z,13.51
2023-05-01T10:36:40.290Z,13.70
2023-05-01T10:39:07.226Z,13.91
2023-05-01T10:41:59.009Z,14.09
2023-05-01T10:44:27.273Z,14.13
2023-05-01T10:46:54.702Z,14.20
2023-05-01T10:49:21.686Z,14.29
2023-05-01T10:52:06.749Z,14.44
2023-05-01T10:54:33.840Z,14.53
2023-05-01T10:57:02.627Z,14.40
2023-05-01T11:00:00.689Z,14.33
2023-05-01T11:02:27.515Z,14.38
2023-05-01T11:04:56.304Z,14.45
2023-05-01T11:07:24.738Z,14.52
2023-05-01T11:09:59.049Z,14.65
2023-05-01T11:12:48.824Z,14.65
2023-05-01T11:15:27.949Z,14.55
2023-05-01T11:17:56.116Z,14.60
2023-05-01T11:20:26.684Z,14.75
2023-05-01T11:22:55.031Z,14.90
2023-05-01T11:25:24.411Z,14.94
2023-05-01T11:27:56.857Z,15.03
2023-05-01T11:30:24.527Z,15.07
2023-05-01T11:32:52.072Z,15.23
2023-05-01T11:35:28.324Z,15.24
2023-05-01T11:37:57.782Z,15.27
2023-05-01T11:40:25.995Z,15.39
2023-05-01T11:43:01.577Z,15.55
2023-05-01T11:45:28.622Z,15.70
2023-05-01T11:47:55.475Z,15.72
2023-05-01T11:50:22.245Z,15.66
2023-05-01T11:52:53.023Z,15.69
2023-05-01T11:55:21.049Z,15.84
2023-05-01T11:57:53.398Z,15.90
2023-05-01T12:00:31.056Z,15.97
2023-05-01T12:03:03.865Z,16.03
2023-05-01T12:05:35.709Z,16.02
2023-05-01T12:08:13.049Z,15.80
2023-05-01T12:10:42.754Z,15.71
2023-05-01T12:13:11.744Z,15.74
2023-05-01T12:15:42.363Z,15.85
2023-05-01T12:18:09.726Z,15.97
2023-05-01T12:20:47.557Z,16.10
2023-05-01T12:23:18.581Z,16.12
2023-05-01T12:25:46.685Z,16.26
2023-05-01T12:28:19.884Z,16.47
2023-05-01T12:30:49.215Z,16.57
2023-05-01T12:33:18.515Z,16.53
2023-05-01T12:35:47.906Z,16.59
2023-05-01T12:38:22.644Z,16.48
2023-05-01T12:41:00.665Z,16.35
2023-05-01T12:43:35.941Z,16.28
2023-05-01T12:46:07.732Z,16.35
2023-05-01T12:48:40.319Z,16.38
2023-05-01T12:51:07.826Z,16.45
2023-05-01T12:53:34.629Z,16.61
2023-05-01T12:56:03.682Z,16.72
2023-05-01T12:58:37.257Z,16.79
2023-05-01T13:01:04.566Z,16.77
2023-05-01T13:03:32.968Z,16.67
2023-05-01T13:06:05.821Z,16.75
2023-05-01T13:08:41.487Z,16.89
2023-05-01T13:11:13.603Z,16.97
2023-05-01T13:13:41.157Z,17.04
2023-05-01T13:16:14.168Z,17.10
2023-05-01T13:18:44.564Z,17.14
2023-05-01T13:21:16.389Z,17.22
2023-05-01T13:23:54.054Z,17.38
2023-05-01T13:26:33.065Z,17.55
2023-05-01T13:29:01.940Z,17.62
2023-05-01T13:31:29.886Z,17.65
2023-05-01T13:33:59.988Z,17.65
2023-05-01T13:39:00.281Z,17.82
2023-05-01T13:41:27.686Z,17.93
2023-05-01T13:43:58.647Z,18.01
2023-05-01T13:46:28.250Z,18.01
2023-05-01T13:49:03.631Z,17.90
2023-05-01T13:51:32.952Z,17.87
2023-05-01T13:54:01.142Z,17.88
2023-05-01T13:56:27.935Z,17.86
2023-05-01T13:58:55.694Z,17.65
2023-05-01T14:01:23.018Z,17.53
2023-05-01T14:03:50.500Z,17.55
2023-05-01T14:06:21.955Z,17.49
2023-05-01T14:08:49.299Z,17.43
2023-05-01T14:11:17.049Z,17.44
2023-05-01T14:13:49.710Z,17.51
2023-05-01T14:16:27.909Z,17.59
2023-05-01T14:18:57.259Z,17.65
2023-05-01T14:21:25.559Z,17.74
2023-05-01T14:23:53.228Z,17.92
2023-05-01T14:26:21.587Z,18.04
2023-05-01T14:28:49.116Z,18.13
2023-05-01T14:31:30.423Z,18.08
2023-05-01T14:34:04.001Z,18.04
2023-05-01T14:36:33.682Z,17.99
2023-05-01T14:39:01.923Z,18.04
2023-05-01T14:41:30.226Z,18.13
2023-05-01T14:43:57.455Z,18.08
2023-05-01T14:46:28.897Z,17.92
2023-05-01T14:48:57.081Z,17.81
2023-05-01T14:51:23.776Z,17.79
2023-05-01T14:53:54.941Z,17.58
2023-05-01T14:56:21.794Z,17.44
2023-05-01T14:58:49.386Z,17.46
2023-05-01T15:01:16.120Z,17.45
2023-05-01T15:03:49.005Z,17.43
2023-05-01T15:06:15.991Z,17.45
2023-05-01T15:08:43.478Z,17.51
2023-05-01T15:11:13.190Z,17.48
2023-05-01T15:13:41.399Z,17.43
2023-05-01T15:16:09.622Z,17.42
2023-05-01T15:18:37.414Z,17.47
2023-05-01T15:21:04.677Z,17.53
2023-05-01T15:23:31.927Z,17.56
2023-05-01T15:25:59.138Z,17.49
2023-05-01T15:28:26.022Z,17.54
2023-05-01T15:30:53.670Z,17.65
2023-05-01T15:33:20.437Z,17.55
2023-05-01T15:35:48.865Z,17.31
2023-05-01T15:38:15.693Z,17.22
2023-05-01T15:40:46.144Z,17.17
2023-05-01T15:43:15.738Z,17.21
2023-05-01T15:45:44.129Z,17.15
2023-05-01T15:48:15.579Z,17.17
2023-05-01T15:50:42.364Z,17.15
2023-05-01T15:53:09.082Z,17.15
2023-05-01T15:55:36.786Z,17.15
2023-05-01T15:58:04.273Z,17.18
2023-05-01T16:00:31.300Z,17.14
2023-05-01T16:02:58.170Z,17.00
2023-05-01T16:05:27.003Z,16.85
2023-05-01T16:07:55.464Z,16.82
2023-05-01T16:10:22.971Z,16.84
2023-05-01T16:12:52.449Z,16.93
2023-05-01T16:15:21.550Z,17.01
2023-05-01T16:17:49.838Z,17.01
2023-05-01T16:20:17.273Z,16.99
2023-05-01T16:22:45.264Z,17.05
2023-05-01T16:25:13.099Z,17.12
2023-05-01T16:27:42.593Z,17.14
2023-05-01T16:30:11.447Z,17.05
2023-05-01T16:32:39.592Z,16.92
2023-05-01T16:35:06.967Z,16.83
2023-05-01T16:37:36.282Z,16.80
2023-05-01T16:40:04.648Z,16.78
2023-05-01T16:42:31.394Z,16.74
2023-05-01T16:44:58.150Z,16.69
2023-05-01T16:47:24.826Z,16.68
2023-05-01T16:49:59.396Z,16.67
2023-05-01T16:52:26.894Z,16.60
2023-05-01T16:54:54.838Z,16.61
2023-05-01T16:57:22.266Z,16.56
2023-05-01T16:59:49.838Z,16.48
2023-05-01T17:02:16.584Z,16.38
2023-05-01T17:04:45.324Z,16.35
2023-05-01T17:07:12.304Z,16.32
2023-05-01T17:09:41.797Z,16.23
2023-05-01T17:12:09.795Z,16.13
2023-05-01T17:14:36.900Z,16.06
2023-05-01T17:19:31.698Z,15.95
2023-05-01T17:21:58.569Z,15.93
2023-05-01T17:24:27.107Z,15.86
2023-05-01T17:26:53.818Z,15.76
2023-05-01T17:29:20.859Z,15.64
2023-05-01T17:31:47.598Z,15.54
2023-05-01T17:34:14.400Z,15.49
2023-05-01T17:36:42.708Z,15.42
2023-05-01T17:39:09.428Z,15.33
2023-05-01T17:41:37.703Z,15.27
2023-05-01T17:44:05.148Z,15.19
2023-05-01T17:46:32.471Z,15.11
2023-05-01T17:48:59.228Z,15.04
2023-05-01T17:51:28.589Z,14.94
2023-05-01T17:53:56.341Z,14.81
2023-05-01T17:56:23.092Z,14.76
2023-05-01T17:58:49.827Z,14.67
2023-05-01T18:01:16.819Z,14.56
2023-05-01T18:03:43.702Z,14.46
2023-05-01T18:06:10.774Z,14.37
2023-05-01T18:08:37.538Z,14.29
2023-05-01T18:11:04.219Z,14.20
2023-05-01T18:13:33.520Z,14.12
2023-05-01T18:16:00.234Z,13.98
2023-05-01T18:18:27.099Z,13.90
2023-05-01T18:20:54.038Z,13.82
2023-05-01T18:23:20.863Z,13.78
2023-05-01T18:25:47.544Z,13.75
2023-05-01T18:28:16.666Z,13.72
2023-05-01T18:30:43.415Z,13.63
2023-05-01T18:33:10.963Z,13.55
2023-05-01T18:35:42.700Z,13.46
2023-05-01T18:38:11.245Z,13.38
2023-05-01T18:40:38.099Z,13.30
2023-05-01T18:43:05.219Z,13.21
2023-05-01T18:45:31.998Z,13.12
2023-05-01T18:48:00.992Z,13.03
2023-05-01T18:50:27.860Z,12.98
2023-05-01T18:52:55.832Z,12.95
2023-05-01T18:55:23.610Z,12.97
2023-05-01T18:57:50.564Z,12.96
2023-05-01T19:00:17.753Z,12.92
2023-05-01T19:02:52.043Z,12.88
2023-05-01T19:05:21.383Z,12.81
2023-05-01T19:07:48.327Z,12.75
2023-05-01T19:10:15.880Z,12.66
2023-05-01T19:12:42.617Z,12.58
2023-05-01T19:15:09.925Z,12.50
2023-05-01T19:17:36.905Z,12.43
2023-05-01T19:20:04.602Z,12.38
2023-05-01T19:22:31.417Z,12.31
2023-05-01T19:24:58.257Z,12.23
2023-05-01T19:27:25.541Z,12.19
2023-05-01T19:29:54.006Z,12.13
2023-05-01T19:32:21.024Z,12.08
2023-05-01T19:34:51.934Z,12.05
2023-05-01T19:37:19.035Z,11.99
2023-05-01T19:39:46.030Z,11.95
2023-05-01T19:42:12.880Z,11.90
2023-05-01T19:44:39.694Z,11.86
2023-05-01T19:47:06.618Z,11.81
2023-05-01T19:49:33.298Z,11.74
2023-05-01T19:52:00.565Z,11.69
2023-05-01T19:54:27.541Z,11.61
2023-05-01T19:56:56.191Z,11.56
2023-05-01T19:59:24.147Z,11.51
2023-05-01T20:01:51.741Z,11.48
2023-05-01T20:04:19.355Z,11.44
2023-05-01T20:06:46.994Z,11.40
2023-05-01T20:09:14.416Z,11.40
2023-05-01T20:11:41.149Z,11.39
2023-05-01T20:14:08.657Z,11.39
2023-05-01T20:16:36.372Z,11.39
2023-05-01T20:19:04.055Z,11.41
2023-05-01T20:21:31.594Z,11.41
2023-05-01T20:23:58.420Z,11.44
2023-05-01T20:26:27.221Z,11.45
2023-05-01T20:29:05.532Z,11.44
2023-05-01T20:31:34.117Z,11.47
2023-05-01T20:34:03.919Z,11.49
2023-05-01T20:36:30.648Z,11.53
2023-05-01T20:38:58.030Z,11.55
2023-05-01T20:41:25.858Z,11.55
2023-05-01T20:43:55.351Z,11.57
2023-05-01T20:46:23.154Z,11.60
2023-05-01T20:48:50.576Z,11.64
2023-05-01T20:51:18.086Z,11.64
2023-05-01T20:53:44.797Z,11.62
2023-05-01T20:56:11.566Z,11.62
2023-05-01T20:58:38.291Z,11.60
2023-05-01T21:01:05.310Z,11.58
2023-05-01T21:03:32.845Z,11.56
2023-05-01T21:06:00.815Z,11.50
2023-05-01T21:08:28.243Z,11.50
2023-05-01T21:10:55.192Z,11.48
2023-05-01T21:13:23.016Z,11.46
2023-05-01T21:15:51.074Z,11.43
2023-05-01T21:18:18.171Z,11.42
2023-05-01T21:20:47.149Z,11.40
2023-05-01T21:23:17.979Z,11.37
2023-05-01T21:25:44.769Z,11.35
2023-05-01T21:28:14.738Z,11.32
2023-05-01T21:30:41.665Z,11.31
2023-05-01T21:33:12.883Z,11.31
2023-05-01T21:35:42.913Z,11.32
2023-05-01T21:38:11.085Z,11.33
2023-05-01T21:40:40.634Z,11.33
2023-05-01T21:43:08.116Z,11.33
2023-05-01T21:45:40.359Z,11.29
2023-05-01T21:48:08.339Z,11.26
2023-05-01T21:50:38.522Z,11.25
2023-05-01T21:53:08.395Z,11.25
2023-05-01T21:55:35.149Z,11.20
2023-05-01T21:58:02.379Z,11.20
2023-05-01T22:00:30.233Z,11.19
2023-05-01T22:02:57.176Z,11.18
2023-05-01T22:05:24.097Z,11.16
2023-05-01T22:07:52.613Z,11.16
2023-05-01T22:10:20.160Z,11.14
2023-05-01T22:12:49.495Z,11.13
2023-05-01T22:15:16.602Z,11.09
2023-05-01T22:17:44.424Z,11.08
2023-05-01T22:20:11.564Z,11.06
2023-05-01T22:22:40.577Z,11.04
2023-05-01T22:25:07.846Z,11.01
2023-05-01T22:27:35.020Z,10.99
2023-05-01T22:30:02.648Z,10.98
2023-05-01T22:32:30.105Z,10.97
2023-05-01T22:34:56.906Z,10.94
2023-05-01T22:37:25.693Z,10.91
2023-05-01T22:39:53.580Z,10.87
2023-05-01T22:42:20.991Z,10.82
2023-05-01T22:44:47.642Z,10.78
2023-05-01T22:47:14.397Z,10.76
2023-05-01T22:49:41.651Z,10.75
2023-05-01T22:52:08.311Z,10.72
2023-05-01T22:54:35.276Z,10.70
2023-05-01T22:57:02.614Z,10.70
2023-05-01T22:59:29.382Z,10.68
2023-05-01T23:01:56.162Z,10.67
2023-05-01T23:04:25.208Z,10.65
2023-05-01T23:06:52.183Z,10.59
2023-05-01T23:09:19.079Z,10.52
2023-05-01T23:11:47.805Z,10.50
2023-05-01T23:14:18.316Z,10.46
2023-05-01T23:16:45.117Z,10.45
2023-05-01T23:19:29.694Z,10.43
2023-05-01T23:22:08.677Z,10.42
2023-05-01T23:24:43.391Z,10.38
2023-05-01T23:27:11.905Z,10.34
2023-05-01T23:29:41.373Z,10.32
2023-05-01T23:32:22.075Z,10.32
2023-05-01T23:34:49.020Z,10.34
2023-05-01T23:37:15.744Z,10.34
2023-05-01T23:39:42.618Z,10.34
2023-05-01T23:42:09.376Z,10.34
2023-05-01T23:44:36.069Z,10.36
2023-05-01T23:47:03.042Z,10.39
2023-05-01T23:49:29.923Z,10.38
2023-05-01T23:51:57.067Z,10.39
2023-05-01T23:54:23.780Z,10.38
2023-05-01T23:56:50.443Z,10.38
2023-05-01T23:59:17.279Z,10.39
